sensor_id;sensor_type;location;lat;lon;timestamp;pressure;altitude;pressure_sealevel;temperature;humidity
39243;BME280;29823;47.404;8.566;2022-12-18T00:01:29;97366.97;;;-1.28;100.00
39243;BME280;29823;47.404;8.566;2022-12-18T00:03:59;97368.50;;;-1.35;100.00
39243;BME280;29823;47.404;8.566;2022-12-18T00:06:29;97368.50;;;-1.26;100.00
39243;BME280;29823;47.404;8.566;2022-12-18T00:08:57;97362.81;;;-1.40;100.00
39243;BME280;29823;47.404;8.566;2022-12-18T00:11:27;97378.44;;;-1.29;100.00
39243;BME280;29823;47.404;8.566;2022-12-18T00:13:58;97384.66;;;-1.30;100.00
39243;BME280;29823;47.404;8.566;2022-12-18T00:16:27;97389.34;;;-1.34;100.00
39243;BME280;29823;47.404;8.566;2022-12-18T00:18:58;97378.56;;;-1.21;100.00
39243;BME280;29823;47.404;8.566;2022-12-18T00:21:28;97387.78;;;-1.46;100.00
39243;BME280;29823;47.404;8.566;2022-12-18T00:23:57;97383.94;;;-1.51;100.00
39243;BME280;29823;47.404;8.566;2022-12-18T00:26:27;97394.84;;;-1.27;100.00
39243;BME280;29823;47.404;8.566;2022-12-18T00:29:00;97391.69;;;-1.31;100.00
39243;BME280;29823;47.404;8.566;2022-12-18T00:31:28;97392.34;;;-1.38;100.00
39243;BME280;29823;47.404;8.566;2022-12-18T00:33:57;97409.09;;;-1.20;100.00
39243;BME280;29823;47.404;8.566;2022-12-18T00:36:27;97406.59;;;-1.31;100.00
39243;BME280;29823;47.404;8.566;2022-12-18T00:38:57;97375.66;;;-1.37;100.00
39243;BME280;29823;47.404;8.566;2022-12-18T00:41:26;97390.03;;;-1.22;100.00
39243;BME280;29823;47.404;8.566;2022-12-18T00:44:30;97384.91;;;-1.43;100.00
39243;BME280;29823;47.404;8.566;2022-12-18T00:46:58;97398.03;;;-1.33;100.00
39243;BME280;29823;47.404;8.566;2022-12-18T00:49:26;97390.31;;;-1.25;100.00
39243;BME280;29823;47.404;8.566;2022-12-18T00:51:54;97383.13;;;-1.23;100.00
39243;BME280;29823;47.404;8.566;2022-12-18T00:54:22;97392.22;;;-1.46;100.00
39243;BME280;29823;47.404;8.566;2022-12-18T00:56:49;97394.13;;;-1.48;100.00
39243;BME280;29823;47.404;8.566;2022-12-18T00:59:18;97399.53;;;-1.50;100.00
39243;BME280;29823;47.404;8.566;2022-12-18T01:01:47;97398.44;;;-1.28;100.00
39243;BME280;29823;47.404;8.566;2022-12-18T01:04:15;97396.06;;;-1.41;100.00
39243;BME280;29823;47.404;8.566;2022-12-18T01:06:43;97399.69;;;-1.32;100.00
39243;BME280;29823;47.404;8.566;2022-12-18T01:09:11;97405.63;;;-1.30;100.00
39243;BME280;29823;47.404;8.566;2022-12-18T01:11:39;97402.72;;;-1.37;100.00
39243;BME280;29823;47.404;8.566;2022-12-18T01:14:07;97403.94;;;-1.50;100.00
39243;BME280;29823;47.404;8.566;2022-12-18T01:16:35;97414.03;;;-1.36;100.00
39243;BME280;29823;47.404;8.566;2022-12-18T01:19:04;97413.75;;;-1.33;100.00
39243;BME280;29823;47.404;8.566;2022-12-18T01:21:32;97416.53;;;-1.25;100.00
39243;BME280;29823;47.404;8.566;2022-12-18T01:24:00;97409.66;;;-1.26;100.00
39243;BME280;29823;47.404;8.566;2022-12-18T01:26:28;97423.28;;;-1.32;100.00
39243;BME280;29823;47.404;8.566;2022-12-18T01:28:57;97428.00;;;-1.26;100.00
39243;BME280;29823;47.404;8.566;2022-12-18T01:31:27;97418.88;;;-1.32;100.00
39243;BME280;29823;47.404;8.566;2022-12-18T01:33:57;97422.31;;;-1.41;100.00
39243;BME280;29823;47.404;8.566;2022-12-18T01:36:28;97434.19;;;-1.46;100.00
39243;BME280;29823;47.404;8.566;2022-12-18T01:38:58;97430.88;;;-1.29;100.00
39243;BME280;29823;47.404;8.566;2022-12-18T01:41:28;97425.38;;;-1.26;100.00
39243;BME280;29823;47.404;8.566;2022-12-18T01:47:39;97434.34;;;-1.19;100.00
39243;BME280;29823;47.404;8.566;2022-12-18T01:50:14;97441.13;;;-1.26;100.00
39243;BME280;29823;47.404;8.566;2022-12-18T01:52:47;97438.59;;;-1.37;100.00
39243;BME280;29823;47.404;8.566;2022-12-18T01:55:19;97427.75;;;-1.72;100.00
39243;BME280;29823;47.404;8.566;2022-12-18T01:57:49;97442.59;;;-1.52;100.00
39243;BME280;29823;47.404;8.566;2022-12-18T02:00:21;97441.91;;;-1.45;100.00
39243;BME280;29823;47.404;8.566;2022-12-18T02:02:49;97435.28;;;-1.49;100.00
39243;BME280;29823;47.404;8.566;2022-12-18T02:05:29;97434.66;;;-1.71;100.00
39243;BME280;29823;47.404;8.566;2022-12-18T02:08:09;97455.94;;;-1.55;100.00
39243;BME280;29823;47.404;8.566;2022-12-18T02:10:44;97437.06;;;-1.49;100.00
39243;BME280;29823;47.404;8.566;2022-12-18T02:13:19;97442.59;;;-1.52;100.00
39243;BME280;29823;47.404;8.566;2022-12-18T02:15:54;97437.19;;;-1.51;100.00
39243;BME280;29823;47.404;8.566;2022-12-18T02:18:28;97441.63;;;-1.51;100.00
39243;BME280;29823;47.404;8.566;2022-12-18T02:21:03;97439.69;;;-1.49;100.00
39243;BME280;29823;47.404;8.566;2022-12-18T02:23:45;97440.81;;;-1.42;100.00
39243;BME280;29823;47.404;8.566;2022-12-18T02:26:18;97435.03;;;-1.36;100.00
39243;BME280;29823;47.404;8.566;2022-12-18T02:28:53;97443.31;;;-1.31;100.00
39243;BME280;29823;47.404;8.566;2022-12-18T02:31:24;97436.09;;;-1.48;100.00
39243;BME280;29823;47.404;8.566;2022-12-18T02:33:56;97449.25;;;-1.10;100.00
39243;BME280;29823;47.404;8.566;2022-12-18T02:36:27;97447.22;;;-1.07;100.00
39243;BME280;29823;47.404;8.566;2022-12-18T02:38:56;97443.56;;;-1.53;100.00
39243;BME280;29823;47.404;8.566;2022-12-18T02:41:27;97446.38;;;-1.75;100.00
39243;BME280;29823;47.404;8.566;2022-12-18T02:43:57;97427.69;;;-1.91;100.00
39243;BME280;29823;47.404;8.566;2022-12-18T02:46:30;97439.84;;;-1.90;100.00
39243;BME280;29823;47.404;8.566;2022-12-18T02:49:06;97441.41;;;-1.78;100.00
39243;BME280;29823;47.404;8.566;2022-12-18T02:51:42;97446.22;;;-1.83;100.00
39243;BME280;29823;47.404;8.566;2022-12-18T02:54:21;97445.03;;;-1.60;100.00
39243;BME280;29823;47.404;8.566;2022-12-18T02:56:55;97445.94;;;-1.12;100.00
39243;BME280;29823;47.404;8.566;2022-12-18T02:59:30;97445.34;;;-1.44;100.00
39243;BME280;29823;47.404;8.566;2022-12-18T03:02:02;97452.56;;;-1.37;100.00
39243;BME280;29823;47.404;8.566;2022-12-18T03:04:39;97451.63;;;-1.26;100.00
39243;BME280;29823;47.404;8.566;2022-12-18T03:07:11;97449.13;;;-1.28;100.00
39243;BME280;29823;47.404;8.566;2022-12-18T03:09:46;97460.47;;;-0.89;100.00
39243;BME280;29823;47.404;8.566;2022-12-18T03:12:20;97460.75;;;-1.02;100.00
39243;BME280;29823;47.404;8.566;2022-12-18T03:14:57;97449.09;;;-1.37;100.00
39243;BME280;29823;47.404;8.566;2022-12-18T03:17:27;97466.94;;;-1.31;100.00
39243;BME280;29823;47.404;8.566;2022-12-18T03:20:02;97466.09;;;-1.22;100.00
39243;BME280;29823;47.404;8.566;2022-12-18T03:22:32;97473.09;;;-1.51;100.00
39243;BME280;29823;47.404;8.566;2022-12-18T03:25:04;97475.34;;;-1.28;100.00
39243;BME280;29823;47.404;8.566;2022-12-18T03:27:35;97477.78;;;-1.45;100.00
39243;BME280;29823;47.404;8.566;2022-12-18T03:30:08;97471.09;;;-1.68;100.00
39243;BME280;29823;47.404;8.566;2022-12-18T03:32:41;97453.63;;;-1.58;100.00
39243;BME280;29823;47.404;8.566;2022-12-18T03:35:13;97475.59;;;-1.40;100.00
39243;BME280;29823;47.404;8.566;2022-12-18T03:37:41;97485.22;;;-1.50;100.00
39243;BME280;29823;47.404;8.566;2022-12-18T03:40:10;97483.47;;;-1.40;100.00
39243;BME280;29823;47.404;8.566;2022-12-18T03:42:45;97472.69;;;-1.37;100.00
39243;BME280;29823;47.404;8.566;2022-12-18T03:45:20;97477.00;;;-1.36;100.00
39243;BME280;29823;47.404;8.566;2022-12-18T03:47:59;97482.06;;;-1.44;100.00
39243;BME280;29823;47.404;8.566;2022-12-18T03:50:36;97482.25;;;-1.36;100.00
39243;BME280;29823;47.404;8.566;2022-12-18T03:53:13;97481.75;;;-1.51;100.00
39243;BME280;29823;47.404;8.566;2022-12-18T03:55:43;97494.75;;;-1.49;100.00
39243;BME280;29823;47.404;8.566;2022-12-18T03:58:16;97498.22;;;-1.39;100.00
39243;BME280;29823;47.404;8.566;2022-12-18T04:00:47;97497.41;;;-1.40;100.00
39243;BME280;29823;47.404;8.566;2022-12-18T04:03:17;97500.03;;;-1.40;100.00
39243;BME280;29823;47.404;8.566;2022-12-18T04:05:52;97500.16;;;-1.41;100.00
39243;BME280;29823;47.404;8.566;2022-12-18T04:08:23;97496.25;;;-1.56;100.00
39243;BME280;29823;47.404;8.566;2022-12-18T04:10:52;97493.44;;;-1.64;100.00
39243;BME280;29823;47.404;8.566;2022-12-18T04:13:27;97503.38;;;-1.68;100.00
39243;BME280;29823;47.404;8.566;2022-12-18T04:15:56;97499.84;;;-1.57;100.00
39243;BME280;29823;47.404;8.566;2022-12-18T04:18:24;97501.75;;;-1.59;100.00
39243;BME280;29823;47.404;8.566;2022-12-18T04:20:52;97499.72;;;-1.56;100.00
39243;BME280;29823;47.404;8.566;2022-12-18T04:23:21;97507.28;;;-1.62;100.00
39243;BME280;29823;47.404;8.566;2022-12-18T04:25:49;97509.13;;;-1.53;100.00
39243;BME280;29823;47.404;8.566;2022-12-18T04:28:17;97510.88;;;-1.63;100.00
39243;BME280;29823;47.404;8.566;2022-12-18T04:30:47;97510.03;;;-1.54;100.00
39243;BME280;29823;47.404;8.566;2022-12-18T04:33:17;97518.34;;;-1.49;100.00
39243;BME280;29823;47.404;8.566;2022-12-18T04:35:45;97519.22;;;-1.39;100.00
39243;BME280;29823;47.404;8.566;2022-12-18T04:38:14;97529.16;;;-1.33;100.00
39243;BME280;29823;47.404;8.566;2022-12-18T04:40:42;97526.41;;;-1.32;100.00
39243;BME280;29823;47.404;8.566;2022-12-18T04:43:10;97510.38;;;-1.38;100.00
39243;BME280;29823;47.404;8.566;2022-12-18T04:45:38;97519.22;;;-1.30;100.00
39243;BME280;29823;47.404;8.566;2022-12-18T04:48:07;97520.31;;;-1.32;100.00
39243;BME280;29823;47.404;8.566;2022-12-18T04:50:36;97528.91;;;-1.30;100.00
39243;BME280;29823;47.404;8.566;2022-12-18T04:53:04;97532.50;;;-1.31;100.00
39243;BME280;29823;47.404;8.566;2022-12-18T04:55:31;97533.44;;;-1.32;100.00
39243;BME280;29823;47.404;8.566;2022-12-18T04:57:59;97528.91;;;-1.30;100.00
39243;BME280;29823;47.404;8.566;2022-12-18T05:00:27;97525.69;;;-1.43;100.00
39243;BME280;29823;47.404;8.566;2022-12-18T05:02:55;97518.09;;;-1.46;100.00
39243;BME280;29823;47.404;8.566;2022-12-18T05:05:24;97517.81;;;-1.43;100.00
39243;BME280;29823;47.404;8.566;2022-12-18T05:07:52;97510.38;;;-1.38;100.00
39243;BME280;29823;47.404;8.566;2022-12-18T05:10:20;97515.63;;;-1.38;100.00
39243;BME280;29823;47.404;8.566;2022-12-18T05:12:48;97517.81;;;-1.43;100.00
39243;BME280;29823;47.404;8.566;2022-12-18T05:15:28;97516.00;;;-1.52;100.00
39243;BME280;29823;47.404;8.566;2022-12-18T05:17:56;97512.84;;;-1.46;100.00
39243;BME280;29823;47.404;8.566;2022-12-18T05:20:26;97513.28;;;-1.41;100.00
39243;BME280;29823;47.404;8.566;2022-12-18T05:22:55;97512.31;;;-1.40;100.00
39243;BME280;29823;47.404;8.566;2022-12-18T05:25:23;97511.97;;;-1.56;100.00
39243;BME280;29823;47.404;8.566;2022-12-18T05:27:51;97523.88;;;-1.52;100.00
39243;BME280;29823;47.404;8.566;2022-12-18T05:30:19;97511.72;;;-1.53;100.00
39243;BME280;29823;47.404;8.566;2022-12-18T05:32:47;97522.53;;;-1.37;100.00
39243;BME280;29823;47.404;8.566;2022-12-18T05:35:15;97528.34;;;-1.34;100.00
39243;BME280;29823;47.404;8.566;2022-12-18T05:37:44;97534.84;;;-1.28;100.00
39243;BME280;29823;47.404;8.566;2022-12-18T05:40:12;97535.97;;;-1.21;100.00
39243;BME280;29823;47.404;8.566;2022-12-18T05:42:40;97541.03;;;-1.39;100.00
39243;BME280;29823;47.404;8.566;2022-12-18T05:45:09;97519.44;;;-1.52;100.00
39243;BME280;29823;47.404;8.566;2022-12-18T05:47:36;97533.22;;;-1.59;100.00
39243;BME280;29823;47.404;8.566;2022-12-18T05:50:05;97539.31;;;-1.49;100.00
39243;BME280;29823;47.404;8.566;2022-12-18T05:52:33;97532.03;;;-1.46;100.00
39243;BME280;29823;47.404;8.566;2022-12-18T05:55:03;97531.22;;;-1.46;100.00
39243;BME280;29823;47.404;8.566;2022-12-18T05:57:31;97525.78;;;-1.54;100.00
39243;BME280;29823;47.404;8.566;2022-12-18T05:59:59;97528.59;;;-1.46;100.00
39243;BME280;29823;47.404;8.566;2022-12-18T06:02:27;97527.75;;;-1.37;100.00
39243;BME280;29823;47.404;8.566;2022-12-18T06:04:55;97527.91;;;-1.39;100.00
39243;BME280;29823;47.404;8.566;2022-12-18T06:07:23;97534.50;;;-1.44;100.00
39243;BME280;29823;47.404;8.566;2022-12-18T06:09:51;97536.34;;;-1.35;100.00
39243;BME280;29823;47.404;8.566;2022-12-18T06:12:20;97534.69;;;-1.36;100.00
39243;BME280;29823;47.404;8.566;2022-12-18T06:14:48;97522.69;;;-1.39;100.00
39243;BME280;29823;47.404;8.566;2022-12-18T06:17:16;97549.06;;;-1.21;100.00
39243;BME280;29823;47.404;8.566;2022-12-18T06:19:44;97551.31;;;-1.26;100.00
39243;BME280;29823;47.404;8.566;2022-12-18T06:22:12;97551.69;;;-1.31;100.00
39243;BME280;29823;47.404;8.566;2022-12-18T06:24:40;97555.56;;;-1.25;100.00
39243;BME280;29823;47.404;8.566;2022-12-18T06:27:08;97560.66;;;-1.33;100.00
39243;BME280;29823;47.404;8.566;2022-12-18T06:29:37;97564.66;;;-1.29;100.00
39243;BME280;29823;47.404;8.566;2022-12-18T06:32:05;97566.16;;;-1.36;100.00
39243;BME280;29823;47.404;8.566;2022-12-18T06:34:33;97558.56;;;-1.30;100.00
39243;BME280;29823;47.404;8.566;2022-12-18T06:37:01;97560.09;;;-1.27;100.00
39243;BME280;29823;47.404;8.566;2022-12-18T06:39:29;97550.56;;;-1.38;100.00
39243;BME280;29823;47.404;8.566;2022-12-18T06:41:57;97559.00;;;-1.34;100.00
39243;BME280;29823;47.404;8.566;2022-12-18T06:44:25;97558.75;;;-1.31;100.00
39243;BME280;29823;47.404;8.566;2022-12-18T06:46:54;97545.72;;;-1.42;100.00
39243;BME280;29823;47.404;8.566;2022-12-18T06:49:22;97562.28;;;-1.42;100.00
39243;BME280;29823;47.404;8.566;2022-12-18T06:51:56;97572.75;;;-1.42;100.00
39243;BME280;29823;47.404;8.566;2022-12-18T06:54:24;97577.47;;;-1.36;100.00
39243;BME280;29823;47.404;8.566;2022-12-18T06:56:51;97588.16;;;-1.28;100.00
39243;BME280;29823;47.404;8.566;2022-12-18T06:59:19;97587.69;;;-1.42;100.00
39243;BME280;29823;47.404;8.566;2022-12-18T07:01:47;97574.69;;;-1.44;100.00
39243;BME280;29823;47.404;8.566;2022-12-18T07:04:16;97589.06;;;-1.38;100.00
39243;BME280;29823;47.404;8.566;2022-12-18T07:06:44;97595.41;;;-1.41;100.00
39243;BME280;29823;47.404;8.566;2022-12-18T07:09:12;97596.59;;;-1.24;100.00
39243;BME280;29823;47.404;8.566;2022-12-18T07:11:40;97603.22;;;-1.20;100.00
39243;BME280;29823;47.404;8.566;2022-12-18T07:14:08;97600.88;;;-1.23;100.00
39243;BME280;29823;47.404;8.566;2022-12-18T07:16:35;97598.78;;;-1.29;100.00
39243;BME280;29823;47.404;8.566;2022-12-18T07:19:03;97603.50;;;-1.23;100.00
39243;BME280;29823;47.404;8.566;2022-12-18T07:21:32;97610.25;;;-1.21;100.00
39243;BME280;29823;47.404;8.566;2022-12-18T07:24:00;97603.56;;;-1.34;100.00
39243;BME280;29823;47.404;8.566;2022-12-18T07:26:29;97618.97;;;-1.20;100.00
39243;BME280;29823;47.404;8.566;2022-12-18T07:28:57;97622.81;;;-1.24;100.00
39243;BME280;29823;47.404;8.566;2022-12-18T07:31:26;97623.38;;;-1.21;100.00
39243;BME280;29823;47.404;8.566;2022-12-18T07:33:54;97626.13;;;-1.22;100.00
39243;BME280;29823;47.404;8.566;2022-12-18T07:36:23;97625.91;;;-1.10;100.00
39243;BME280;29823;47.404;8.566;2022-12-18T07:38:52;97625.06;;;-1.10;100.00
39243;BME280;29823;47.404;8.566;2022-12-18T07:41:20;97630.31;;;-1.10;100.00
39243;BME280;29823;47.404;8.566;2022-12-18T07:43:48;97625.34;;;-1.13;100.00
39243;BME280;29823;47.404;8.566;2022-12-18T07:46:16;97625.91;;;-1.10;100.00
39243;BME280;29823;47.404;8.566;2022-12-18T07:48:45;97627.84;;;-1.12;100.00
39243;BME280;29823;47.404;8.566;2022-12-18T07:51:16;97633.25;;;-1.04;100.00
39243;BME280;29823;47.404;8.566;2022-12-18T07:53:44;97634.13;;;-0.94;100.00
39243;BME280;29823;47.404;8.566;2022-12-18T07:56:19;97631.91;;;-0.98;100.00
39243;BME280;29823;47.404;8.566;2022-12-18T07:58:54;97636.63;;;-0.92;100.00
39243;BME280;29823;47.404;8.566;2022-12-18T08:01:22;97635.88;;;-1.04;100.00
39243;BME280;29823;47.404;8.566;2022-12-18T08:03:50;97642.66;;;-0.92;100.00
39243;BME280;29823;47.404;8.566;2022-12-18T08:06:19;97642.44;;;-0.79;100.00
39243;BME280;29823;47.404;8.566;2022-12-18T08:08:51;97645.25;;;-0.71;100.00
39243;BME280;29823;47.404;8.566;2022-12-18T08:11:20;97643.84;;;-0.75;100.00
39243;BME280;29823;47.404;8.566;2022-12-18T08:13:48;97642.16;;;-0.86;100.00
39243;BME280;29823;47.404;8.566;2022-12-18T08:16:17;97646.44;;;-0.85;100.00
39243;BME280;29823;47.404;8.566;2022-12-18T08:18:46;97651.81;;;-0.86;100.00
39243;BME280;29823;47.404;8.566;2022-12-18T08:21:16;97644.69;;;-0.75;100.00
39243;BME280;29823;47.404;8.566;2022-12-18T08:23:46;97656.72;;;-0.72;100.00
39243;BME280;29823;47.404;8.566;2022-12-18T08:26:14;97653.38;;;-0.65;100.00
39243;BME280;29823;47.404;8.566;2022-12-18T08:28:44;97651.19;;;-0.69;100.00
39243;BME280;29823;47.404;8.566;2022-12-18T08:31:12;97654.78;;;-0.70;100.00
39243;BME280;29823;47.404;8.566;2022-12-18T08:33:41;97656.06;;;-0.55;100.00
39243;BME280;29823;47.404;8.566;2022-12-18T08:36:10;97658.97;;;-0.49;100.00
39243;BME280;29823;47.404;8.566;2022-12-18T08:38:38;97655.66;;;-0.51;100.00
39243;BME280;29823;47.404;8.566;2022-12-18T08:41:09;97662.84;;;-0.43;100.00
39243;BME280;29823;47.404;8.566;2022-12-18T08:43:38;97666.19;;;-0.32;100.00
39243;BME280;29823;47.404;8.566;2022-12-18T08:46:26;97657.63;;;-0.15;100.00
39243;BME280;29823;47.404;8.566;2022-12-18T08:48:55;97662.03;;;-0.34;100.00
39243;BME280;29823;47.404;8.566;2022-12-18T08:51:23;97655.16;;;-0.26;100.00
39243;BME280;29823;47.404;8.566;2022-12-18T08:53:51;97666.47;;;-0.26;100.00
39243;BME280;29823;47.404;8.566;2022-12-18T08:56:19;97667.13;;;-0.43;100.00
39243;BME280;29823;47.404;8.566;2022-12-18T08:58:47;97660.34;;;-0.36;100.00
39243;BME280;29823;47.404;8.566;2022-12-18T09:01:14;97651.13;;;-0.02;100.00
39243;BME280;29823;47.404;8.566;2022-12-18T09:03:44;97645.03;;;0.07;100.00
39243;BME280;29823;47.404;8.566;2022-12-18T09:06:14;97644.06;;;-0.01;100.00
39243;BME280;29823;47.404;8.566;2022-12-18T09:08:42;97641.03;;;-0.16;100.00
39243;BME280;29823;47.404;8.566;2022-12-18T09:11:13;97632.03;;;-0.04;100.00
39243;BME280;29823;47.404;8.566;2022-12-18T09:13:41;97632.88;;;-0.03;100.00
39243;BME280;29823;47.404;8.566;2022-12-18T09:16:09;97635.78;;;-0.16;100.00
39243;BME280;29823;47.404;8.566;2022-12-18T09:18:37;97627.19;;;0.20;100.00
39243;BME280;29823;47.404;8.566;2022-12-18T09:21:11;97628.28;;;0.27;100.00
39243;BME280;29823;47.404;8.566;2022-12-18T09:23:40;97627.59;;;0.25;100.00
39243;BME280;29823;47.404;8.566;2022-12-18T09:26:07;97626.97;;;0.50;100.00
39243;BME280;29823;47.404;8.566;2022-12-18T09:28:36;97620.78;;;0.32;100.00
39243;BME280;29823;47.404;8.566;2022-12-18T09:31:05;97625.69;;;0.08;100.00
39243;BME280;29823;47.404;8.566;2022-12-18T09:33:35;97631.56;;;0.29;100.00
39243;BME280;29823;47.404;8.566;2022-12-18T09:36:05;97627.28;;;0.47;100.00
39243;BME280;29823;47.404;8.566;2022-12-18T09:38:35;97635.81;;;0.59;100.00
39243;BME280;29823;47.404;8.566;2022-12-18T09:41:05;97648.38;;;0.74;100.00
39243;BME280;29823;47.404;8.566;2022-12-18T09:43:45;97640.19;;;0.77;100.00
39243;BME280;29823;47.404;8.566;2022-12-18T09:46:17;97633.19;;;0.68;100.00
39243;BME280;29823;47.404;8.566;2022-12-18T09:48:49;97637.88;;;0.74;100.00
39243;BME280;29823;47.404;8.566;2022-12-18T09:51:18;97642.72;;;0.69;100.00
39243;BME280;29823;47.404;8.566;2022-12-18T09:53:53;97636.22;;;0.73;100.00
39243;BME280;29823;47.404;8.566;2022-12-18T09:56:25;97643.44;;;0.62;100.00
39243;BME280;29823;47.404;8.566;2022-12-18T09:58:58;97614.63;;;0.60;100.00
39243;BME280;29823;47.404;8.566;2022-12-18T10:01:28;97636.38;;;0.53;100.00
39243;BME280;29823;47.404;8.566;2022-12-18T10:04:09;97636.22;;;0.73;100.00
39243;BME280;29823;47.404;8.566;2022-12-18T10:06:42;97638.44;;;0.68;100.00
39243;BME280;29823;47.404;8.566;2022-12-18T10:09:22;97642.03;;;0.67;100.00
39243;BME280;29823;47.404;8.566;2022-12-18T10:11:56;97638.22;;;0.89;100.00
39243;BME280;29823;47.404;8.566;2022-12-18T10:14:30;97642.34;;;0.55;100.00
39243;BME280;29823;47.404;8.566;2022-12-18T10:17:07;97650.53;;;0.42;100.00
39243;BME280;29823;47.404;8.566;2022-12-18T10:19:42;97646.81;;;0.45;100.00
39243;BME280;29823;47.404;8.566;2022-12-18T10:22:25;97647.19;;;0.59;100.00
39243;BME280;29823;47.404;8.566;2022-12-18T10:25:01;97653.03;;;0.90;100.00
39243;BME280;29823;47.404;8.566;2022-12-18T10:27:32;97641.59;;;1.08;100.00
39243;BME280;29823;47.404;8.566;2022-12-18T10:30:04;97649.81;;;1.32;100.00
39243;BME280;29823;47.404;8.566;2022-12-18T10:32:39;97651.16;;;1.36;100.00
39243;BME280;29823;47.404;8.566;2022-12-18T10:35:11;97647.00;;;0.70;100.00
39243;BME280;29823;47.404;8.566;2022-12-18T10:38:04;97649.19;;;0.75;100.00
39243;BME280;29823;47.404;8.566;2022-12-18T10:40:48;97640.53;;;1.01;100.00
39243;BME280;29823;47.404;8.566;2022-12-18T10:43:20;97644.50;;;0.69;100.00
39243;BME280;29823;47.404;8.566;2022-12-18T10:46:01;97637.75;;;1.03;100.00
39243;BME280;29823;47.404;8.566;2022-12-18T10:48:30;97640.84;;;0.89;100.00
39243;BME280;29823;47.404;8.566;2022-12-18T10:50:59;97648.44;;;0.65;100.00
39243;BME280;29823;47.404;8.566;2022-12-18T10:53:40;97664.09;;;0.47;100.00
39243;BME280;29823;47.404;8.566;2022-12-18T10:56:11;97625.53;;;0.19;100.00
39243;BME280;29823;47.404;8.566;2022-12-18T10:58:39;97664.81;;;0.30;100.00
39243;BME280;29823;47.404;8.566;2022-12-18T11:01:10;97662.59;;;0.35;100.00
39243;BME280;29823;47.404;8.566;2022-12-18T11:03:40;97666.09;;;0.72;100.00
39243;BME280;29823;47.404;8.566;2022-12-18T11:06:10;97661.91;;;0.89;100.00
39243;BME280;29823;47.404;8.566;2022-12-18T11:08:39;97656.56;;;0.81;100.00
39243;BME280;29823;47.404;8.566;2022-12-18T11:11:19;97653.84;;;1.00;100.00
39243;BME280;29823;47.404;8.566;2022-12-18T11:13:58;97649.50;;;1.08;100.00
39243;BME280;29823;47.404;8.566;2022-12-18T11:16:27;97641.78;;;0.97;100.00
39243;BME280;29823;47.404;8.566;2022-12-18T11:19:11;97637.25;;;1.44;100.00
39243;BME280;29823;47.404;8.566;2022-12-18T11:21:41;97625.19;;;1.24;100.00
39243;BME280;29823;47.404;8.566;2022-12-18T11:24:19;97629.56;;;0.69;100.00
39243;BME280;29823;47.404;8.566;2022-12-18T11:26:50;97619.53;;;0.92;100.00
39243;BME280;29823;47.404;8.566;2022-12-18T11:29:30;97618.75;;;1.36;100.00
39243;BME280;29823;47.404;8.566;2022-12-18T11:32:27;97614.25;;;1.46;100.00
39243;BME280;29823;47.404;8.566;2022-12-18T11:35:03;97601.22;;;1.44;100.00
39243;BME280;29823;47.404;8.566;2022-12-18T11:37:32;97601.75;;;1.48;100.00
39243;BME280;29823;47.404;8.566;2022-12-18T11:40:05;97600.09;;;1.47;100.00
39243;BME280;29823;47.404;8.566;2022-12-18T11:42:44;97605.31;;;1.02;100.00
39243;BME280;29823;47.404;8.566;2022-12-18T11:45:27;97601.91;;;0.56;100.00
39243;BME280;29823;47.404;8.566;2022-12-18T11:48:01;97594.59;;;0.86;100.00
39243;BME280;29823;47.404;8.566;2022-12-18T11:50:40;97594.13;;;0.91;100.00
39243;BME280;29823;47.404;8.566;2022-12-18T11:53:11;97594.50;;;0.78;100.00
39243;BME280;29823;47.404;8.566;2022-12-18T11:55:43;97596.09;;;0.52;100.00
39243;BME280;29823;47.404;8.566;2022-12-18T11:58:23;97600.03;;;0.39;100.00
39243;BME280;29823;47.404;8.566;2022-12-18T12:01:02;97604.44;;;0.38;100.00
39243;BME280;29823;47.404;8.566;2022-12-18T12:03:57;97606.78;;;0.51;100.00
39243;BME280;29823;47.404;8.566;2022-12-18T12:06:33;97601.88;;;0.65;100.00
39243;BME280;29823;47.404;8.566;2022-12-18T12:09:13;97610.25;;;0.42;100.00
39243;BME280;29823;47.404;8.566;2022-12-18T12:11:55;97603.56;;;0.57;100.00
39243;BME280;29823;47.404;8.566;2022-12-18T12:14:37;97599.94;;;0.67;100.00
39243;BME280;29823;47.404;8.566;2022-12-18T12:17:13;97596.03;;;0.98;100.00
39243;BME280;29823;47.404;8.566;2022-12-18T12:19:50;97602.88;;;1.18;100.00
39243;BME280;29823;47.404;8.566;2022-12-18T12:22:25;97590.31;;;1.12;100.00
39243;BME280;29823;47.404;8.566;2022-12-18T12:25:12;97589.03;;;1.16;100.00
39243;BME280;29823;47.404;8.566;2022-12-18T12:27:50;97588.66;;;1.11;100.00
39243;BME280;29823;47.404;8.566;2022-12-18T12:30:27;97572.69;;;0.86;100.00
39243;BME280;29823;47.404;8.566;2022-12-18T12:33:05;97575.88;;;1.16;100.00
39243;BME280;29823;47.404;8.566;2022-12-18T12:35:47;97582.28;;;0.77;100.00
39243;BME280;29823;47.404;8.566;2022-12-18T12:38:21;97588.06;;;1.17;100.00
39243;BME280;29823;47.404;8.566;2022-12-18T12:40:54;97580.66;;;1.03;100.00
39243;BME280;29823;47.404;8.566;2022-12-18T12:43:34;97573.91;;;0.91;100.00
39243;BME280;29823;47.404;8.566;2022-12-18T12:46:10;97570.63;;;0.80;100.00
39243;BME280;29823;47.404;8.566;2022-12-18T12:48:42;97572.75;;;1.03;100.00
39243;BME280;29823;47.404;8.566;2022-12-18T12:51:15;97561.19;;;1.31;100.00
39243;BME280;29823;47.404;8.566;2022-12-18T12:53:44;97562.06;;;1.05;100.00
39243;BME280;29823;47.404;8.566;2022-12-18T12:56:14;97550.47;;;0.98;100.00
39243;BME280;29823;47.404;8.566;2022-12-18T12:58:49;97558.56;;;1.31;100.00
39243;BME280;29823;47.404;8.566;2022-12-18T13:01:28;97560.50;;;1.12;100.00
39243;BME280;29823;47.404;8.566;2022-12-18T13:04:14;97557.03;;;1.38;100.00
39243;BME280;29823;47.404;8.566;2022-12-18T13:06:51;97538.81;;;1.00;100.00
39243;BME280;29823;47.404;8.566;2022-12-18T13:09:21;97557.50;;;1.24;100.00
39243;BME280;29823;47.404;8.566;2022-12-18T13:11:49;97561.41;;;1.20;100.00
39243;BME280;29823;47.404;8.566;2022-12-18T13:14:36;97564.25;;;1.09;100.00
39243;BME280;29823;47.404;8.566;2022-12-18T13:17:30;97567.88;;;1.08;100.00
39243;BME280;29823;47.404;8.566;2022-12-18T13:20:08;97560.69;;;1.01;100.00